Time;durP1;ratioP1;P1;durP2;ratioP2;P2;SDS_P1;SDS_P2;PMS_P1;PMS_P2;Temp;Humidity;BMP_temperature;BMP_pressure;BME280_temperature;BME280_humidity;BME280_pressure;Samples;Min_cycle;Max_cycle;Signal;HPM_P1;HPM_P2
2022/02/24 00:00:10;;;;;;;10.05;2.22;;;;;;;;;;5034821;28;20618;-79
2022/02/24 00:02:35;;;;;;;13.00;2.78;;;;;;;;;;5034334;28;20022;-78
2022/02/24 00:05:00;;;;;;;11.45;2.65;;;;;;;;;;5034606;28;20472;-78
2022/02/24 00:07:26;;;;;;;6.13;1.92;;;;;;;;;;5034756;28;20013;-79
2022/02/24 00:09:51;;;;;;;11.32;1.95;;;;;;;;;;5035063;28;20076;-79
2022/02/24 00:12:17;;;;;;;16.50;2.10;;;;;;;;;;5044412;28;20017;-79
2022/02/24 00:14:42;;;;;;;9.10;2.10;;;;;;;;;;5056906;28;20022;-78
2022/02/24 00:17:07;;;;;;;10.57;1.85;;;;;;;;;;5054127;28;20021;-79
2022/02/24 00:19:33;;;;;;;9.48;2.00;;;;;;;;;;5040198;28;20040;-79
2022/02/24 00:21:58;;;;;;;7.07;2.20;;;;;;;;;;5041042;28;20090;-80
2022/02/24 00:24:23;;;;;;;8.93;1.85;;;;;;;;;;5036242;28;20642;-79
2022/02/24 00:26:49;;;;;;;5.38;1.65;;;;;;;;;;5035163;28;20465;-79
2022/02/24 00:29:14;;;;;;;8.23;2.03;;;;;;;;;;5035403;28;20481;-79
2022/02/24 00:31:39;;;;;;;7.85;1.73;;;;;;;;;;5035018;28;20021;-79
2022/02/24 00:34:04;;;;;;;10.48;1.90;;;;;;;;;;5034479;28;20014;-80
2022/02/24 00:36:29;;;;;;;9.07;2.15;;;;;;;;;;5034550;28;20017;-78
2022/02/24 00:38:54;;;;;;;6.82;1.70;;;;;;;;;;5034611;28;20040;-78
2022/02/24 00:41:20;;;;;;;6.43;1.70;;;;;;;;;;5034696;28;20037;-79
2022/02/24 00:43:45;;;;;;;6.10;2.08;;;;;;;;;;5033436;28;20009;-79
2022/02/24 00:46:11;;;;;;;10.02;2.10;;;;;;;;;;5034143;28;20087;-78
2022/02/24 00:48:36;;;;;;;8.15;1.90;;;;;;;;;;5034061;28;20059;-78
2022/02/24 00:51:01;;;;;;;5.38;1.80;;;;;;;;;;5034314;28;20022;-79
2022/02/24 00:53:26;;;;;;;7.90;1.65;;;;;;;;;;5033824;28;20401;-79
2022/02/24 00:55:51;;;;;;;11.45;2.13;;;;;;;;;;5034079;28;20048;-79
2022/02/24 00:58:17;;;;;;;6.63;2.10;;;;;;;;;;5034198;28;20100;-79
2022/02/24 01:00:42;;;;;;;9.27;2.25;;;;;;;;;;5034486;28;20025;-79
2022/02/24 01:03:07;;;;;;;8.10;2.15;;;;;;;;;;5033847;28;20032;-78
2022/02/24 01:05:33;;;;;;;5.55;1.70;;;;;;;;;;5032844;28;20021;-79
2022/02/24 01:07:58;;;;;;;8.50;1.98;;;;;;;;;;5034070;28;20022;-78
2022/02/24 01:10:23;;;;;;;7.88;1.67;;;;;;;;;;5034686;28;20022;-78
2022/02/24 01:12:48;;;;;;;7.40;1.73;;;;;;;;;;5032335;28;20021;-79
2022/02/24 01:15:13;;;;;;;5.15;1.90;;;;;;;;;;5032892;28;20021;-79
2022/02/24 01:17:43;;;;;;;6.82;1.88;;;;;;;;;;5034796;28;20028;-79
2022/02/24 01:20:08;;;;;;;6.63;1.15;;;;;;;;;;5036216;28;20025;-80
2022/02/24 01:22:33;;;;;;;8.68;1.60;;;;;;;;;;5033794;28;20017;-78
2022/02/24 01:24:59;;;;;;;11.23;2.40;;;;;;;;;;5032072;28;20053;-79
2022/02/24 01:27:24;;;;;;;6.72;1.63;;;;;;;;;;5032098;28;20025;-79
2022/02/24 01:29:49;;;;;;;3.15;1.20;;;;;;;;;;5033174;28;20112;-78
2022/02/24 01:32:15;;;;;;;4.85;1.70;;;;;;;;;;5032910;28;20048;-79
2022/02/24 01:34:40;;;;;;;9.02;2.20;;;;;;;;;;5033129;28;20063;-78
2022/02/24 01:37:05;;;;;;;5.90;1.52;;;;;;;;;;5033251;28;20071;-79
2022/02/24 01:39:31;;;;;;;5.57;1.40;;;;;;;;;;5032984;28;20021;-79
2022/02/24 01:41:56;;;;;;;6.47;1.58;;;;;;;;;;5031262;28;20025;-79
2022/02/24 01:44:22;;;;;;;5.55;1.58;;;;;;;;;;5032945;28;20021;-79
2022/02/24 01:46:47;;;;;;;7.30;2.20;;;;;;;;;;5032991;28;20105;-79
2022/02/24 01:49:12;;;;;;;7.45;2.05;;;;;;;;;;5031550;28;20049;-78
2022/02/24 01:51:38;;;;;;;6.26;1.34;;;;;;;;;;5033146;28;20013;-79
2022/02/24 01:54:04;;;;;;;4.80;1.42;;;;;;;;;;5032802;28;20013;-79
2022/02/24 01:56:30;;;;;;;5.03;2.20;;;;;;;;;;5032654;28;20074;-78
2022/02/24 01:58:55;;;;;;;7.60;1.60;;;;;;;;;;5032786;28;20097;-78
2022/02/24 02:01:21;;;;;;;6.22;1.55;;;;;;;;;;5032453;28;20026;-78
2022/02/24 02:03:46;;;;;;;8.27;2.00;;;;;;;;;;5030918;28;20104;-78
2022/02/24 02:06:12;;;;;;;8.82;2.13;;;;;;;;;;5032762;28;20503;-79
2022/02/24 02:08:37;;;;;;;5.60;1.75;;;;;;;;;;5032810;28;20029;-79
2022/02/24 02:11:02;;;;;;;5.80;1.58;;;;;;;;;;5033481;28;20025;-79
2022/02/24 02:13:31;;;;;;;7.88;1.50;;;;;;;;;;5034161;28;20109;-78
2022/02/24 02:15:56;;;;;;;9.23;1.88;;;;;;;;;;5034810;28;20029;-78
2022/02/24 02:18:21;;;;;;;7.95;1.98;;;;;;;;;;5036078;28;20473;-78
2022/02/24 02:20:46;;;;;;;8.23;2.00;;;;;;;;;;5036963;28;20485;-78
2022/02/24 02:23:12;;;;;;;12.05;1.67;;;;;;;;;;5035272;28;20029;-79
2022/02/24 02:25:37;;;;;;;6.03;1.33;;;;;;;;;;5035539;28;20029;-78
2022/02/24 02:28:02;;;;;;;5.82;2.00;;;;;;;;;;5034734;28;20063;-78
2022/02/24 02:30:28;;;;;;;7.20;1.75;;;;;;;;;;5033960;28;20022;-78
2022/02/24 02:32:54;;;;;;;6.68;1.70;;;;;;;;;;5032024;28;20021;-79
2022/02/24 02:35:19;;;;;;;7.63;1.60;;;;;;;;;;5032389;28;20096;-79
2022/02/24 02:37:45;;;;;;;8.50;2.20;;;;;;;;;;5032599;28;20036;-78
2022/02/24 02:40:10;;;;;;;8.50;2.42;;;;;;;;;;5032227;28;20018;-79
2022/02/24 02:42:35;;;;;;;10.27;1.65;;;;;;;;;;5030518;28;20109;-78
2022/02/24 02:45:02;;;;;;;7.20;2.08;;;;;;;;;;5032339;28;20476;-78
2022/02/24 02:47:27;;;;;;;7.53;1.73;;;;;;;;;;5032611;28;20024;-78
2022/02/24 02:49:52;;;;;;;6.18;1.45;;;;;;;;;;5033030;28;20380;-79
2022/02/24 02:52:17;;;;;;;7.25;1.67;;;;;;;;;;5031687;28;20067;-78
2022/02/24 02:54:42;;;;;;;7.07;2.35;;;;;;;;;;5030658;28;20032;-79
2022/02/24 02:57:08;;;;;;;9.80;2.28;;;;;;;;;;5032134;28;20488;-79
2022/02/24 02:59:33;;;;;;;6.75;2.30;;;;;;;;;;5031915;28;20109;-79
2022/02/24 03:01:58;;;;;;;8.00;1.83;;;;;;;;;;5031887;28;20013;-79
2022/02/24 03:04:24;;;;;;;7.45;1.88;;;;;;;;;;5032000;28;20014;-79
2022/02/24 03:06:49;;;;;;;7.55;1.52;;;;;;;;;;5033274;28;20022;-79
2022/02/24 03:09:14;;;;;;;5.75;1.40;;;;;;;;;;5036345;28;20021;-79
2022/02/24 03:11:39;;;;;;;8.68;1.83;;;;;;;;;;5036050;28;20028;-80
2022/02/24 03:14:05;;;;;;;5.75;1.35;;;;;;;;;;5036157;28;20461;-79
2022/02/24 03:16:30;;;;;;;7.03;1.50;;;;;;;;;;5036716;28;20026;-78
2022/02/24 03:18:55;;;;;;;8.10;1.95;;;;;;;;;;5037029;28;20100;-79
2022/02/24 03:21:20;;;;;;;6.63;1.73;;;;;;;;;;5037352;28;20032;-78
2022/02/24 03:23:46;;;;;;;5.60;1.30;;;;;;;;;;5037994;28;20112;-79
2022/02/24 03:26:11;;;;;;;6.47;1.60;;;;;;;;;;5038313;28;20408;-79
2022/02/24 03:28:36;;;;;;;10.02;3.78;;;;;;;;;;5034733;28;20552;-78
2022/02/24 03:31:03;;;;;;;6.28;1.45;;;;;;;;;;5035896;28;20025;-78
2022/02/24 03:33:28;;;;;;;11.15;2.10;;;;;;;;;;5037476;28;20057;-78
2022/02/24 03:35:53;;;;;;;4.78;1.92;;;;;;;;;;5039026;28;20040;-79
2022/02/24 03:38:18;;;;;;;7.65;1.70;;;;;;;;;;5039271;28;20503;-79
2022/02/24 03:40:43;;;;;;;6.18;1.90;;;;;;;;;;5039064;28;20017;-79
2022/02/24 03:43:09;;;;;;;5.35;1.50;;;;;;;;;;5037462;28;20022;-80
2022/02/24 03:45:34;;;;;;;7.90;1.98;;;;;;;;;;5036892;28;20022;-79
2022/02/24 03:47:59;;;;;;;10.82;1.70;;;;;;;;;;5036603;28;20017;-78
2022/02/24 03:50:24;;;;;;;6.63;1.58;;;;;;;;;;5037177;28;20017;-79
2022/02/24 03:52:50;;;;;;;6.35;1.38;;;;;;;;;;5035287;28;20097;-79
2022/02/24 03:55:15;;;;;;;5.35;1.40;;;;;;;;;;5035968;28;20473;-79
2022/02/24 03:57:40;;;;;;;4.13;1.52;;;;;;;;;;5035290;28;20025;-78
2022/02/24 04:00:06;;;;;;;7.00;2.03;;;;;;;;;;5036820;28;20022;-79
2022/02/24 04:02:32;;;;;;;6.03;1.63;;;;;;;;;;5035915;28;20043;-79
2022/02/24 04:04:57;;;;;;;4.70;1.48;;;;;;;;;;5036976;28;20044;-78
2022/02/24 04:07:22;;;;;;;7.63;1.75;;;;;;;;;;5036858;28;20389;-78
2022/02/24 04:09:47;;;;;;;8.80;1.50;;;;;;;;;;5036575;28;20025;-78
2022/02/24 04:12:16;;;;;;;8.77;2.17;;;;;;;;;;5035597;28;20079;-79
2022/02/24 04:14:41;;;;;;;6.32;1.75;;;;;;;;;;5036004;28;20045;-78
2022/02/24 04:17:06;;;;;;;8.60;1.88;;;;;;;;;;5035542;28;20032;-79
2022/02/24 04:19:32;;;;;;;11.60;1.88;;;;;;;;;;5034158;28;20088;-80
2022/02/24 04:21:57;;;;;;;3.53;1.52;;;;;;;;;;5035125;28;20104;-79
2022/02/24 04:24:22;;;;;;;9.18;1.30;;;;;;;;;;5035812;28;20025;-79
2022/02/24 04:26:47;;;;;;;8.15;2.03;;;;;;;;;;5035293;28;20025;-79
2022/02/24 04:29:12;;;;;;;6.43;1.50;;;;;;;;;;5037263;28;20460;-79
2022/02/24 04:31:37;;;;;;;8.10;1.73;;;;;;;;;;5036561;28;20096;-78
2022/02/24 04:34:03;;;;;;;7.35;1.50;;;;;;;;;;5035192;28;20376;-78
2022/02/24 04:36:28;;;;;;;10.10;1.85;;;;;;;;;;5036135;28;20018;-79
2022/02/24 04:38:53;;;;;;;8.70;1.52;;;;;;;;;;5035950;28;20013;-78
2022/02/24 04:41:18;;;;;;;7.95;2.00;;;;;;;;;;5035459;28;20500;-79
2022/02/24 04:43:44;;;;;;;8.20;1.75;;;;;;;;;;5034743;28;20554;-78
2022/02/24 04:46:09;;;;;;;7.35;2.00;;;;;;;;;;5034200;28;20049;-80
2022/02/24 04:48:34;;;;;;;7.07;1.85;;;;;;;;;;5035624;28;20108;-80
2022/02/24 04:50:59;;;;;;;12.13;2.60;;;;;;;;;;5036000;28;20022;-78
2022/02/24 04:53:25;;;;;;;5.35;1.67;;;;;;;;;;5036727;28;20017;-80
2022/02/24 04:55:50;;;;;;;8.52;1.77;;;;;;;;;;5036927;28;20025;-79
2022/02/24 04:58:15;;;;;;;11.20;1.77;;;;;;;;;;5035890;28;20014;-79
2022/02/24 05:00:40;;;;;;;4.25;1.38;;;;;;;;;;5036276;28;20033;-78
2022/02/24 05:03:06;;;;;;;4.60;1.70;;;;;;;;;;5035105;28;20021;-79
2022/02/24 05:05:31;;;;;;;6.13;1.65;;;;;;;;;;5035368;28;20105;-78
2022/02/24 05:07:56;;;;;;;4.88;1.42;;;;;;;;;;5035848;28;20096;-78
2022/02/24 05:10:21;;;;;;;8.05;1.52;;;;;;;;;;5034542;28;20107;-79
2022/02/24 05:12:47;;;;;;;8.40;1.90;;;;;;;;;;5035673;28;20492;-79
2022/02/24 05:15:12;;;;;;;8.98;1.60;;;;;;;;;;5035977;28;20025;-79
2022/02/24 05:17:40;;;;;;;6.35;1.70;;;;;;;;;;5034759;28;20032;-79
2022/02/24 05:20:09;;;;;;;10.57;1.63;;;;;;;;;;5036441;28;20104;-79
2022/02/24 05:22:37;;;;;;;8.45;1.70;;;;;;;;;;5035791;28;20485;-78
2022/02/24 05:25:03;;;;;;;6.43;1.80;;;;;;;;;;5035718;28;20017;-79
2022/02/24 05:27:29;;;;;;;6.18;2.40;;;;;;;;;;5034968;28;20033;-80
2022/02/24 05:29:54;;;;;;;7.28;1.58;;;;;;;;;;5035815;28;20104;-79
2022/02/24 05:32:19;;;;;;;6.82;1.60;;;;;;;;;;5036918;28;20063;-79
2022/02/24 05:34:44;;;;;;;7.38;1.80;;;;;;;;;;5036230;28;20021;-80
2022/02/24 05:37:10;;;;;;;6.65;1.65;;;;;;;;;;5035710;28;20122;-78
2022/02/24 05:39:35;;;;;;;7.53;1.88;;;;;;;;;;5036922;28;20045;-78
2022/02/24 05:42:00;;;;;;;14.75;2.55;;;;;;;;;;5037219;28;20076;-78
2022/02/24 05:44:25;;;;;;;5.47;1.90;;;;;;;;;;5039648;28;20010;-79
2022/02/24 05:46:51;;;;;;;5.93;1.80;;;;;;;;;;5035602;28;20491;-78
2022/02/24 05:49:16;;;;;;;8.15;2.00;;;;;;;;;;5035426;28;20021;-79
2022/02/24 05:51:42;;;;;;;11.05;1.65;;;;;;;;;;5035462;28;20069;-79
2022/02/24 05:54:07;;;;;;;4.25;1.33;;;;;;;;;;5034411;28;20017;-79
2022/02/24 05:56:33;;;;;;;5.68;1.75;;;;;;;;;;5036698;28;20013;-79
2022/02/24 05:58:58;;;;;;;6.88;2.08;;;;;;;;;;5035875;28;20056;-79
2022/02/24 06:01:23;;;;;;;8.13;1.77;;;;;;;;;;5033813;28;20048;-80
2022/02/24 06:03:48;;;;;;;5.20;1.67;;;;;;;;;;5032572;28;20095;-79
2022/02/24 06:06:14;;;;;;;11.52;1.85;;;;;;;;;;5032835;28;20465;-78
2022/02/24 06:08:39;;;;;;;6.63;1.77;;;;;;;;;;5033234;28;20013;-79
2022/02/24 06:11:04;;;;;;;6.40;1.90;;;;;;;;;;5033152;28;20018;-79
2022/02/24 06:13:29;;;;;;;6.72;2.33;;;;;;;;;;5032534;28;20458;-79
2022/02/24 06:15:55;;;;;;;5.50;1.95;;;;;;;;;;5036965;28;20109;-79
2022/02/24 06:18:20;;;;;;;5.38;1.98;;;;;;;;;;5035865;28;20047;-78
2022/02/24 06:20:46;;;;;;;7.30;1.80;;;;;;;;;;5032636;28;20064;-79
2022/02/24 06:23:11;;;;;;;8.00;2.15;;;;;;;;;;5032318;28;20041;-79
2022/02/24 06:25:37;;;;;;;9.48;2.15;;;;;;;;;;5033269;28;20538;-79
2022/02/24 06:28:02;;;;;;;8.95;1.88;;;;;;;;;;5032918;28;20116;-79
2022/02/24 06:30:27;;;;;;;6.72;1.60;;;;;;;;;;5033330;28;20074;-79
2022/02/24 06:32:52;;;;;;;11.57;2.03;;;;;;;;;;5032839;28;20029;-79
2022/02/24 06:35:18;;;;;;;6.20;1.67;;;;;;;;;;5036974;28;20018;-78
2022/02/24 06:37:43;;;;;;;8.45;1.52;;;;;;;;;;5034615;28;20080;-77
2022/02/24 06:40:09;;;;;;;4.20;1.25;;;;;;;;;;5034506;28;20021;-77
2022/02/24 06:42:34;;;;;;;6.20;1.80;;;;;;;;;;5035590;28;20049;-79
2022/02/24 06:44:59;;;;;;;9.40;2.88;;;;;;;;;;5039835;28;20464;-80
2022/02/24 06:47:24;;;;;;;7.30;1.58;;;;;;;;;;5039340;28;20014;-78
2022/02/24 06:49:50;;;;;;;8.80;1.70;;;;;;;;;;5039071;28;20481;-79
2022/02/24 06:52:15;;;;;;;4.70;1.45;;;;;;;;;;5039529;28;20025;-79
2022/02/24 06:54:40;;;;;;;10.65;1.80;;;;;;;;;;5036858;28;20072;-79
2022/02/24 06:57:06;;;;;;;7.70;1.63;;;;;;;;;;5037503;28;20032;-79
2022/02/24 06:59:32;;;;;;;11.82;2.78;;;;;;;;;;5035506;28;20033;-79
2022/02/24 07:01:57;;;;;;;12.13;3.20;;;;;;;;;;5036478;28;20017;-78
2022/02/24 07:04:22;;;;;;;3.65;1.65;;;;;;;;;;5036400;28;20028;-79
2022/02/24 07:06:48;;;;;;;7.07;1.67;;;;;;;;;;5036372;28;20449;-79
2022/02/24 07:09:14;;;;;;;6.55;1.48;;;;;;;;;;5036316;28;20018;-78
2022/02/24 07:11:39;;;;;;;7.18;2.58;;;;;;;;;;5035884;28;20045;-79
2022/02/24 07:14:04;;;;;;;12.50;3.08;;;;;;;;;;5036189;28;20461;-79
2022/02/24 07:16:29;;;;;;;7.03;1.48;;;;;;;;;;5036217;28;20056;-79
2022/02/24 07:18:54;;;;;;;13.88;1.83;;;;;;;;;;5036209;28;20465;-79
2022/02/24 07:21:20;;;;;;;6.38;2.03;;;;;;;;;;5035663;28;20672;-80
2022/02/24 07:23:45;;;;;;;10.18;2.25;;;;;;;;;;5035296;28;20462;-79
2022/02/24 07:26:11;;;;;;;4.40;1.80;;;;;;;;;;5036138;28;20011;-80
2022/02/24 07:28:36;;;;;;;9.20;2.10;;;;;;;;;;5035912;28;20469;-78
2022/02/24 07:31:02;;;;;;;7.55;2.00;;;;;;;;;;5035924;28;20025;-79
2022/02/24 07:33:27;;;;;;;12.45;2.78;;;;;;;;;;5033926;28;20025;-79
2022/02/24 07:35:52;;;;;;;7.93;2.20;;;;;;;;;;5035597;28;20037;-79
2022/02/24 07:38:18;;;;;;;7.53;2.00;;;;;;;;;;5035655;28;20080;-79
2022/02/24 07:40:43;;;;;;;11.15;1.92;;;;;;;;;;5035702;28;20029;-80
2022/02/24 07:43:08;;;;;;;6.00;1.90;;;;;;;;;;5035719;28;20022;-78
2022/02/24 07:45:33;;;;;;;6.68;1.90;;;;;;;;;;5036450;28;20384;-79
2022/02/24 07:47:58;;;;;;;12.80;1.63;;;;;;;;;;5036952;28;20013;-78
2022/02/24 07:50:24;;;;;;;6.30;1.85;;;;;;;;;;5036177;28;20501;-78
2022/02/24 07:52:49;;;;;;;12.43;1.98;;;;;;;;;;5035373;28;20021;-79
2022/02/24 07:55:14;;;;;;;9.02;2.10;;;;;;;;;;5035837;28;20055;-79
2022/02/24 07:57:43;;;;;;;8.95;2.05;;;;;;;;;;5036017;28;20029;-79
2022/02/24 08:00:13;;;;;;;6.40;1.92;;;;;;;;;;5035768;28;20030;-79
2022/02/24 08:02:38;;;;;;;7.18;1.83;;;;;;;;;;5035092;28;20048;-79
2022/02/24 08:05:04;;;;;;;9.52;2.83;;;;;;;;;;5035124;28;20424;-79
2022/02/24 08:07:29;;;;;;;7.70;2.35;;;;;;;;;;5035461;28;20555;-79
2022/02/24 08:09:54;;;;;;;6.57;2.25;;;;;;;;;;5035352;28;20361;-79
2022/02/24 08:15:03;;;;;;;7.78;1.98;;;;;;;;;;5035221;28;20075;-80
2022/02/24 08:17:28;;;;;;;8.10;2.10;;;;;;;;;;5034300;28;20021;-78
2022/02/24 08:19:54;;;;;;;10.55;2.30;;;;;;;;;;5034819;28;20384;-79
2022/02/24 08:22:19;;;;;;;5.18;2.17;;;;;;;;;;5033404;28;20074;-79
2022/02/24 08:24:45;;;;;;;8.23;2.25;;;;;;;;;;5035661;28;20036;-79
2022/02/24 08:27:10;;;;;;;10.52;2.38;;;;;;;;;;5035427;28;20018;-79
2022/02/24 08:29:35;;;;;;;5.13;1.85;;;;;;;;;;5035497;28;20071;-79
2022/02/24 08:32:00;;;;;;;9.25;2.33;;;;;;;;;;5034643;28;20449;-79
2022/02/24 08:34:25;;;;;;;11.82;3.35;;;;;;;;;;5034962;28;20061;-79
2022/02/24 08:36:51;;;;;;;9.93;3.15;;;;;;;;;;5035154;28;20128;-80
2022/02/24 08:39:20;;;;;;;6.05;2.47;;;;;;;;;;5035634;28;20100;-80
2022/02/24 08:41:45;;;;;;;9.93;2.40;;;;;;;;;;5033802;28;20025;-78
2022/02/24 08:44:11;;;;;;;11.75;2.35;;;;;;;;;;5033556;28;20396;-80
2022/02/24 08:46:36;;;;;;;11.85;3.47;;;;;;;;;;5034733;28;20036;-80
2022/02/24 08:49:01;;;;;;;8.20;2.60;;;;;;;;;;5034784;28;20476;-79
2022/02/24 08:51:26;;;;;;;9.30;2.25;;;;;;;;;;5034571;28;20036;-78
2022/02/24 08:53:51;;;;;;;6.32;1.98;;;;;;;;;;5034759;28;20021;-79
2022/02/24 08:56:17;;;;;;;6.68;2.17;;;;;;;;;;5034077;28;20024;-80
2022/02/24 08:58:42;;;;;;;10.73;2.47;;;;;;;;;;5034168;28;20022;-78
2022/02/24 09:01:07;;;;;;;6.13;2.40;;;;;;;;;;5033716;28;20026;-79
2022/02/24 09:03:32;;;;;;;14.43;3.03;;;;;;;;;;5033475;28;20026;-79
2022/02/24 09:05:58;;;;;;;9.27;2.30;;;;;;;;;;5033014;28;20075;-79
2022/02/24 09:08:23;;;;;;;8.05;2.42;;;;;;;;;;5032301;28;20072;-78
2022/02/24 09:10:48;;;;;;;7.00;1.88;;;;;;;;;;5033511;28;20473;-79
2022/02/24 09:13:13;;;;;;;6.53;2.53;;;;;;;;;;5033104;28;20017;-79
2022/02/24 09:15:38;;;;;;;6.50;1.83;;;;;;;;;;5033406;28;20100;-79
2022/02/24 09:18:05;;;;;;;5.80;2.22;;;;;;;;;;5033463;28;20044;-79
2022/02/24 09:20:31;;;;;;;5.45;1.77;;;;;;;;;;5031558;28;20048;-80
2022/02/24 09:22:56;;;;;;;8.68;2.15;;;;;;;;;;5031492;28;20021;-79
2022/02/24 09:25:23;;;;;;;9.40;2.35;;;;;;;;;;5033188;28;20101;-78
2022/02/24 09:27:49;;;;;;;8.15;2.22;;;;;;;;;;5032214;28;20026;-78
2022/02/24 09:30:15;;;;;;;8.45;2.00;;;;;;;;;;5033178;28;20013;-79
2022/02/24 09:32:42;;;;;;;9.30;2.40;;;;;;;;;;5032693;28;20036;-77
2022/02/24 09:35:09;;;;;;;9.88;2.40;;;;;;;;;;5033113;28;20119;-77
2022/02/24 09:37:36;;;;;;;8.93;2.13;;;;;;;;;;5031609;28;20392;-80
2022/02/24 09:40:02;;;;;;;10.10;3.15;;;;;;;;;;5031558;28;20112;-79
2022/02/24 09:42:28;;;;;;;7.78;2.63;;;;;;;;;;5032730;28;20052;-78
2022/02/24 09:44:53;;;;;;;6.57;2.33;;;;;;;;;;5033237;28;20472;-78
2022/02/24 09:47:18;;;;;;;7.22;2.92;;;;;;;;;;5032989;28;20022;-78
2022/02/24 09:49:45;;;;;;;10.98;2.28;;;;;;;;;;5033106;28;20588;-79
2022/02/24 09:52:10;;;;;;;7.57;1.90;;;;;;;;;;5032553;28;20031;-78
2022/02/24 09:54:35;;;;;;;9.58;2.32;;;;;;;;;;5033242;28;20104;-79
2022/02/24 09:57:00;;;;;;;7.38;2.15;;;;;;;;;;5033175;28;20408;-78
2022/02/24 09:59:27;;;;;;;15.38;3.17;;;;;;;;;;5032833;28;20079;-79
2022/02/24 10:01:52;;;;;;;9.13;2.53;;;;;;;;;;5031526;28;20013;-79
2022/02/24 10:04:18;;;;;;;9.60;2.28;;;;;;;;;;5032010;28;20442;-79
2022/02/24 10:06:43;;;;;;;10.98;2.25;;;;;;;;;;5032613;28;20021;-77
2022/02/24 10:09:09;;;;;;;7.07;1.88;;;;;;;;;;5032644;28;20488;-79
2022/02/24 10:11:35;;;;;;;5.32;1.60;;;;;;;;;;5032330;28;20022;-79
2022/02/24 10:14:02;;;;;;;7.38;2.00;;;;;;;;;;5032311;28;20026;-77
2022/02/24 10:16:28;;;;;;;8.57;2.40;;;;;;;;;;5032523;28;20468;-79
2022/02/24 10:18:54;;;;;;;8.75;2.40;;;;;;;;;;5032401;28;20079;-78
2022/02/24 10:21:20;;;;;;;12.98;2.75;;;;;;;;;;5032712;28;20014;-79
2022/02/24 10:23:46;;;;;;;15.88;3.35;;;;;;;;;;5032092;28;20209;-79
2022/02/24 10:26:12;;;;;;;12.23;2.72;;;;;;;;;;5032051;28;20535;-79
2022/02/24 10:28:49;;;;;;;8.20;2.25;;;;;;;;;;5031057;28;20017;-79
2022/02/24 10:31:19;;;;;;;10.20;3.15;;;;;;;;;;5032090;28;20477;-78
2022/02/24 10:33:49;;;;;;;16.27;2.90;;;;;;;;;;5030567;28;20075;-79
2022/02/24 10:36:22;;;;;;;17.45;3.67;;;;;;;;;;5030797;28;20059;-79
2022/02/24 10:39:04;;;;;;;12.15;2.30;;;;;;;;;;5032094;28;20025;-78
2022/02/24 10:41:31;;;;;;;13.43;3.03;;;;;;;;;;5032256;28;20477;-78
2022/02/24 10:44:16;;;;;;;8.20;2.13;;;;;;;;;;5031849;28;20066;-79
2022/02/24 10:46:43;;;;;;;9.02;2.35;;;;;;;;;;5033063;28;20021;-79
2022/02/24 10:49:09;;;;;;;6.28;1.77;;;;;;;;;;5033131;28;20013;-78
2022/02/24 10:51:36;;;;;;;6.10;1.90;;;;;;;;;;5033550;28;20032;-80
2022/02/24 10:54:11;;;;;;;8.10;2.45;;;;;;;;;;5033944;28;20053;-79
2022/02/24 10:56:38;;;;;;;10.43;2.58;;;;;;;;;;5032360;28;20025;-79
2022/02/24 10:59:04;;;;;;;7.57;1.67;;;;;;;;;;5032621;28;20026;-80
2022/02/24 11:01:29;;;;;;;8.10;2.08;;;;;;;;;;5032501;28;20086;-80
2022/02/24 11:03:54;;;;;;;17.63;5.20;;;;;;;;;;5033503;28;20025;-79
2022/02/24 11:06:20;;;;;;;11.02;3.00;;;;;;;;;;5032188;28;20050;-79
2022/02/24 11:08:46;;;;;;;8.38;1.90;;;;;;;;;;5031266;28;20025;-80
2022/02/24 11:11:16;;;;;;;3.60;1.50;;;;;;;;;;5032311;28;20444;-79
2022/02/24 11:13:41;;;;;;;9.07;2.10;;;;;;;;;;5031914;28;20033;-78
2022/02/24 11:16:07;;;;;;;11.80;2.60;;;;;;;;;;5032450;28;20040;-78
2022/02/24 11:18:32;;;;;;;14.85;2.78;;;;;;;;;;5032517;28;20026;-79
2022/02/24 11:20:57;;;;;;;7.45;2.30;;;;;;;;;;5032276;28;20041;-79
2022/02/24 11:23:23;;;;;;;7.57;2.30;;;;;;;;;;5032223;28;20412;-79
2022/02/24 11:25:54;;;;;;;6.50;2.63;;;;;;;;;;5032329;28;20385;-79
2022/02/24 11:28:21;;;;;;;8.63;2.30;;;;;;;;;;5033514;28;20021;-79
2022/02/24 11:30:50;;;;;;;8.15;2.42;;;;;;;;;;5035773;28;20025;-79
2022/02/24 11:33:15;;;;;;;10.60;1.98;;;;;;;;;;5035345;28;20028;-80
2022/02/24 11:35:41;;;;;;;7.10;2.08;;;;;;;;;;5035259;28;20034;-78
2022/02/24 11:38:06;;;;;;;5.78;1.50;;;;;;;;;;5035162;28;20018;-79
2022/02/24 11:40:36;;;;;;;6.28;1.85;;;;;;;;;;5035605;28;20018;-79
2022/02/24 11:43:23;;;;;;;6.18;2.05;;;;;;;;;;5034936;28;20025;-78
2022/02/24 11:45:56;;;;;;;6.00;2.00;;;;;;;;;;5035196;28;20070;-77
2022/02/24 11:48:27;;;;;;;8.68;1.92;;;;;;;;;;5033834;28;20029;-79
2022/02/24 11:50:59;;;;;;;6.43;1.80;;;;;;;;;;5035621;28;20044;-78
2022/02/24 11:53:28;;;;;;;9.07;3.10;;;;;;;;;;5033871;28;20511;-79
2022/02/24 11:56:00;;;;;;;7.22;2.30;;;;;;;;;;5035998;28;20480;-78
2022/02/24 11:58:28;;;;;;;7.18;2.25;;;;;;;;;;5035684;28;20025;-79
2022/02/24 12:01:12;;;;;;;3.63;1.45;;;;;;;;;;5035204;28;20065;-78
2022/02/24 12:03:43;;;;;;;7.13;1.88;;;;;;;;;;5034721;28;20017;-77
2022/02/24 12:06:08;;;;;;;6.47;2.17;;;;;;;;;;5035092;28;20013;-78
2022/02/24 12:08:54;;;;;;;4.95;1.80;;;;;;;;;;5035928;28;20350;-79
2022/02/24 12:11:38;;;;;;;9.02;1.88;;;;;;;;;;5035533;28;20028;-79
2022/02/24 12:14:19;;;;;;;9.70;1.80;;;;;;;;;;5034512;28;20026;-78
2022/02/24 12:17:08;;;;;;;10.63;2.05;;;;;;;;;;5035144;28;20024;-80
2022/02/24 12:19:45;;;;;;;6.35;1.80;;;;;;;;;;5034756;28;20021;-79
2022/02/24 12:22:14;;;;;;;9.13;2.17;;;;;;;;;;5034181;28;20106;-78
2022/02/24 12:24:44;;;;;;;5.90;1.70;;;;;;;;;;5033305;28;20017;-78
2022/02/24 12:27:29;;;;;;;8.57;2.10;;;;;;;;;;5034639;28;20013;-79
2022/02/24 12:30:02;;;;;;;9.85;2.00;;;;;;;;;;5033344;28;20025;-79
2022/02/24 12:32:42;;;;;;;8.43;1.80;;;;;;;;;;5032723;28;20091;-78
2022/02/24 12:35:08;;;;;;;6.85;1.95;;;;;;;;;;5034558;28;20017;-78
2022/02/24 12:37:33;;;;;;;5.65;1.50;;;;;;;;;;5035640;28;20017;-78
2022/02/24 12:39:59;;;;;;;4.35;2.05;;;;;;;;;;5032982;28;20564;-80
2022/02/24 12:42:25;;;;;;;10.35;1.60;;;;;;;;;;5034384;28;20013;-78
2022/02/24 12:44:50;;;;;;;7.03;1.95;;;;;;;;;;5034864;28;20504;-79
2022/02/24 12:47:16;;;;;;;6.43;1.70;;;;;;;;;;5034931;28;20029;-79
2022/02/24 12:49:41;;;;;;;7.88;1.65;;;;;;;;;;5034697;28;20036;-79
2022/02/24 12:52:06;;;;;;;3.83;1.48;;;;;;;;;;5034496;28;20029;-79
2022/02/24 12:54:31;;;;;;;6.18;1.85;;;;;;;;;;5034760;28;20083;-80
2022/02/24 12:57:03;;;;;;;4.90;2.00;;;;;;;;;;5033944;28;20017;-78
2022/02/24 12:59:29;;;;;;;5.47;1.60;;;;;;;;;;5034577;28;20059;-79
2022/02/24 13:01:54;;;;;;;6.10;1.77;;;;;;;;;;5032575;28;20025;-80
2022/02/24 13:04:21;;;;;;;3.45;1.33;;;;;;;;;;5034120;28;20021;-80
2022/02/24 13:06:46;;;;;;;6.85;1.50;;;;;;;;;;5034120;28;20539;-79
2022/02/24 13:11:57;;;;;;;4.28;0.90;;;;;;;;;;5033966;28;20075;-79
2022/02/24 13:14:22;;;;;;;7.03;1.42;;;;;;;;;;5034715;28;20037;-79
2022/02/24 13:16:47;;;;;;;5.10;1.80;;;;;;;;;;5033877;28;20097;-79
2022/02/24 13:19:17;;;;;;;3.70;1.48;;;;;;;;;;5033658;28;20082;-79
2022/02/24 13:21:42;;;;;;;12.20;1.50;;;;;;;;;;5033631;28;20028;-79
2022/02/24 13:24:07;;;;;;;7.85;1.63;;;;;;;;;;5031823;28;20017;-79
2022/02/24 13:26:34;;;;;;;6.70;1.55;;;;;;;;;;5033533;28;20580;-79
2022/02/24 13:28:59;;;;;;;8.85;1.60;;;;;;;;;;5033568;28;20017;-79
2022/02/24 13:31:24;;;;;;;5.35;1.40;;;;;;;;;;5033752;28;20021;-78
2022/02/24 13:33:50;;;;;;;3.50;1.48;;;;;;;;;;5031568;28;20079;-80
2022/02/24 13:36:17;;;;;;;11.77;2.75;;;;;;;;;;5033190;28;20018;-79
2022/02/24 13:38:43;;;;;;;6.22;1.60;;;;;;;;;;5031906;28;20040;-78
2022/02/24 13:41:15;;;;;;;7.95;1.67;;;;;;;;;;5033045;28;20021;-79
2022/02/24 13:43:41;;;;;;;4.72;1.50;;;;;;;;;;5032582;28;20092;-79
2022/02/24 13:46:07;;;;;;;4.85;1.63;;;;;;;;;;5032745;28;20020;-78
2022/02/24 13:48:58;;;;;;;6.15;2.00;;;;;;;;;;5033330;28;20092;-80
2022/02/24 13:51:24;;;;;;;7.53;1.38;;;;;;;;;;5032481;28;20033;-78
2022/02/24 13:53:50;;;;;;;9.90;2.05;;;;;;;;;;5032935;28;20029;-79
2022/02/24 13:56:15;;;;;;;6.50;1.70;;;;;;;;;;5032859;28;20431;-79
2022/02/24 13:58:41;;;;;;;6.75;1.58;;;;;;;;;;5033333;28;20025;-78
2022/02/24 14:01:06;;;;;;;6.78;1.50;;;;;;;;;;5033474;28;20453;-78
2022/02/24 14:03:34;;;;;;;7.53;1.73;;;;;;;;;;5032551;28;20017;-79
2022/02/24 14:06:20;;;;;;;7.13;1.77;;;;;;;;;;5032581;28;20014;-78
2022/02/24 14:08:48;;;;;;;8.52;2.25;;;;;;;;;;5031440;28;20079;-77
2022/02/24 14:11:17;;;;;;;5.73;2.30;;;;;;;;;;5033485;28;20033;-79
2022/02/24 14:13:42;;;;;;;;;;;;;;;;;;5032438;28;20246;-78
2022/02/24 14:16:08;;;;;;;7.32;1.48;;;;;;;;;;5032272;28;19959;-77
2022/02/24 14:18:33;;;;;;;6.28;1.65;;;;;;;;;;5032231;28;20033;-77
2022/02/24 14:20:58;;;;;;;8.60;2.15;;;;;;;;;;5033428;28;20096;-79
2022/02/24 14:23:23;;;;;;;7.18;2.00;;;;;;;;;;5032423;28;20030;-78
2022/02/24 14:25:49;;;;;;;5.80;1.77;;;;;;;;;;5031479;28;20032;-77
2022/02/24 14:28:14;;;;;;;7.60;1.70;;;;;;;;;;5032810;28;20097;-78
2022/02/24 14:30:39;;;;;;;8.07;1.60;;;;;;;;;;5032411;28;20473;-78
2022/02/24 14:33:05;;;;;;;6.18;1.98;;;;;;;;;;5032217;28;20023;-79
2022/02/24 14:35:30;;;;;;;12.13;2.53;;;;;;;;;;5030972;28;20484;-78
2022/02/24 14:37:55;;;;;;;6.20;1.73;;;;;;;;;;5032489;28;20063;-79
2022/02/24 14:40:20;;;;;;;5.50;1.63;;;;;;;;;;5032425;28;20458;-77